Time;durP1;ratioP1;P1;durP2;ratioP2;P2;SDS_P1;SDS_P2;PMS_P1;PMS_P2;Temp;Humidity;BMP_temperature;BMP_pressure;BME280_temperature;BME280_humidity;BME280_pressure;Samples;Min_cycle;Max_cycle;Signal;HPM_P1;HPM_P2
2022/10/12 00:04:42;;;;;;;0.17;0.17;;;;;;;3.16;100.00;102825.84;10625440;27;20493;-77
2022/10/12 00:09:43;;;;;;;0.22;0.13;;;;;;;3.23;100.00;102827.28;10605415;27;20059;-77
2022/10/12 00:14:45;;;;;;;0.32;0.32;;;;;;;3.16;100.00;102819.09;10599990;27;20046;-77
2022/10/12 00:19:49;;;;;;;1.52;0.63;;;;;;;3.14;100.00;102823.19;10601408;27;20146;-77
2022/10/12 00:24:52;;;;;;;2.50;0.82;;;;;;;3.15;100.00;102830.06;10592767;27;20039;-77
2022/10/12 00:29:53;;;;;;;0.30;0.15;;;;;;;3.20;100.00;102825.38;10575197;27;20065;-76
2022/10/12 00:34:55;;;;;;;0.03;0.03;;;;;;;3.04;100.00;102834.97;10576850;27;20039;-77
2022/10/12 00:39:56;;;;;;;0.00;0.00;;;;;;;3.02;100.00;102832.28;10612970;27;20043;-77
2022/10/12 00:44:58;;;;;;;0.00;0.00;;;;;;;3.08;100.00;102827.75;10633502;27;20059;-78
2022/10/12 00:50:02;;;;;;;0.30;0.10;;;;;;;2.96;100.00;102827.56;10633111;27;20043;-77
2022/10/12 00:55:06;;;;;;;0.00;0.00;;;;;;;2.84;100.00;102819.75;10605905;27;20047;-77
2022/10/12 01:00:11;;;;;;;0.43;0.30;;;;;;;2.92;100.00;102827.16;10584378;27;20039;-77
2022/10/12 01:05:12;;;;;;;1.30;0.63;;;;;;;3.00;100.00;102828.72;10591372;27;20121;-77
2022/10/12 01:10:18;;;;;;;0.10;0.10;;;;;;;2.92;100.00;102819.53;10604573;27;20471;-77
2022/10/12 01:15:22;;;;;;;0.05;0.05;;;;;;;3.03;100.00;102818.78;10604556;27;20110;-77
2022/10/12 01:20:42;;;;;;;0.60;0.40;;;;;;;2.91;100.00;102816.06;10621696;27;20058;-77
2022/10/12 01:25:55;;;;;;;0.45;0.22;;;;;;;3.04;100.00;102810.41;10586169;27;20074;-76
2022/10/12 01:31:03;;;;;;;0.15;0.15;;;;;;;2.91;100.00;102813.50;10619339;27;20065;-77
2022/10/12 01:36:14;;;;;;;0.00;0.00;;;;;;;2.95;100.00;102812.13;10572799;27;20498;-77
2022/10/12 01:41:18;;;;;;;0.00;0.00;;;;;;;3.03;100.00;102811.16;10603689;27;20075;-77
2022/10/12 01:46:20;;;;;;;0.47;0.30;;;;;;;2.99;100.00;102816.75;10603103;27;20055;-77
2022/10/12 01:51:33;;;;;;;0.08;0.08;;;;;;;2.95;100.00;102797.75;10616182;27;20040;-77
2022/10/12 01:56:46;;;;;;;0.10;0.10;;;;;;;2.91;100.00;102797.34;10598782;27;20050;-76
2022/10/12 02:01:56;;;;;;;0.05;0.05;;;;;;;3.02;100.00;102796.63;10620476;27;20068;-76
2022/10/12 02:07:11;;;;;;;0.22;0.20;;;;;;;2.79;100.00;102781.91;10578756;28;20139;-77
2022/10/12 02:12:17;;;;;;;0.00;0.00;;;;;;;2.93;100.00;102778.91;10593779;28;20047;-77
2022/10/12 02:17:21;;;;;;;0.47;0.35;;;;;;;3.00;100.00;102782.88;10581596;28;20055;-77
2022/10/12 02:22:25;;;;;;;0.00;0.00;;;;;;;3.05;100.00;102775.66;10612642;28;20054;-76
2022/10/12 02:27:27;;;;;;;0.70;0.10;;;;;;;3.00;100.00;102767.63;10597805;28;20313;-76
2022/10/12 02:32:47;;;;;;;0.00;0.00;;;;;;;3.06;100.00;102765.59;10620148;27;20043;-77
2022/10/12 02:38:03;;;;;;;0.00;0.00;;;;;;;2.80;100.00;102766.75;10608541;27;20088;-77
2022/10/12 02:43:12;;;;;;;0.15;0.15;;;;;;;2.75;100.00;102760.38;10606749;27;20067;-76
2022/10/12 02:48:19;;;;;;;0.00;0.00;;;;;;;2.78;100.00;102760.66;10625716;27;20050;-77
2022/10/12 02:53:22;;;;;;;0.00;0.00;;;;;;;2.94;100.00;102756.91;10596882;27;20074;-77
2022/10/12 02:58:24;;;;;;;0.00;0.00;;;;;;;2.76;100.00;102754.53;10607529;27;20067;-76
2022/10/12 03:03:26;;;;;;;0.13;0.13;;;;;;;2.70;100.00;102756.53;10593397;27;20465;-76
2022/10/12 03:08:28;;;;;;;0.00;0.00;;;;;;;2.73;100.00;102751.69;10626490;27;20035;-76
2022/10/12 03:13:29;;;;;;;0.10;0.10;;;;;;;2.63;100.00;102744.03;10622393;27;20043;-78
2022/10/12 03:18:31;;;;;;;0.00;0.00;;;;;;;2.47;100.00;102742.69;10622656;27;20121;-76
2022/10/12 03:23:33;;;;;;;0.10;0.10;;;;;;;2.39;100.00;102746.19;10608994;27;20469;-76
2022/10/12 03:28:34;;;;;;;0.22;0.22;;;;;;;2.25;100.00;102739.00;10622507;27;20043;-77
2022/10/12 03:33:36;;;;;;;0.05;0.03;;;;;;;2.28;100.00;102741.78;10627368;27;20067;-76
2022/10/12 03:38:38;;;;;;;0.10;0.10;;;;;;;2.24;100.00;102734.66;10608333;27;20047;-77
2022/10/12 03:43:39;;;;;;;0.00;0.00;;;;;;;2.14;100.00;102726.19;10600903;27;20129;-77
2022/10/12 03:48:41;;;;;;;0.10;0.10;;;;;;;2.40;100.00;102735.25;10619397;27;20070;-76
2022/10/12 03:53:42;;;;;;;0.00;0.00;;;;;;;2.44;100.00;102737.31;10627037;27;20407;-77
2022/10/12 03:58:46;;;;;;;0.52;0.17;;;;;;;2.32;100.00;102733.69;10625989;27;20071;-77
2022/10/12 04:03:47;;;;;;;0.70;0.38;;;;;;;2.20;100.00;102736.03;10613177;27;20062;-77
2022/10/12 04:08:49;;;;;;;0.03;0.03;;;;;;;2.34;100.00;102735.59;10631073;27;20039;-77
2022/10/12 04:13:51;;;;;;;0.00;0.00;;;;;;;2.15;100.00;102727.97;10603684;27;20046;-77
2022/10/12 04:18:53;;;;;;;0.15;0.15;;;;;;;2.25;100.00;102723.72;10606513;27;20051;-76
2022/10/12 04:23:54;;;;;;;0.00;0.00;;;;;;;2.28;100.00;102729.06;10599732;27;20554;-77
2022/10/12 04:28:56;;;;;;;0.00;0.00;;;;;;;1.86;100.00;102726.25;10606556;27;20062;-76
2022/10/12 04:33:57;;;;;;;2.28;0.88;;;;;;;1.68;100.00;102724.56;10617001;27;20058;-77
2022/10/12 04:38:59;;;;;;;0.30;0.20;;;;;;;1.65;100.00;102729.38;10586682;27;20405;-78
2022/10/12 04:44:01;;;;;;;0.20;0.15;;;;;;;1.46;100.00;102725.16;10611112;27;20058;-76
2022/10/12 04:49:03;;;;;;;0.00;0.00;;;;;;;1.77;100.00;102725.41;10597125;27;20053;-77
2022/10/12 04:54:04;;;;;;;0.00;0.00;;;;;;;1.70;100.00;102723.06;10602615;27;20278;-77
2022/10/12 04:59:07;;;;;;;0.10;0.10;;;;;;;1.82;100.00;102729.28;10623209;27;20043;-76
2022/10/12 05:04:08;;;;;;;0.43;0.20;;;;;;;1.63;100.00;102730.88;10616609;27;20366;-77
2022/10/12 05:09:10;;;;;;;0.32;0.32;;;;;;;1.60;100.00;102728.09;10601651;27;20570;-76
2022/10/12 05:14:17;;;;;;;0.10;0.10;;;;;;;1.48;100.00;102717.69;10600069;27;20481;-76
2022/10/12 05:19:18;;;;;;;1.65;0.30;;;;;;;1.48;100.00;102715.16;10624112;27;20045;-76
2022/10/12 05:24:20;;;;;;;0.10;0.10;;;;;;;1.33;100.00;102715.53;10605466;27;20558;-76
2022/10/12 05:29:22;;;;;;;2.17;0.85;;;;;;;1.60;100.00;102725.53;10608826;27;20054;-76
2022/10/12 05:34:23;;;;;;;0.03;0.03;;;;;;;1.46;100.00;102714.97;10598868;27;20065;-76
2022/10/12 05:39:25;;;;;;;0.00;0.00;;;;;;;1.42;100.00;102718.00;10617821;27;20538;-77
2022/10/12 05:44:26;;;;;;;0.00;0.00;;;;;;;1.17;100.00;102713.19;10596091;27;20054;-76
2022/10/12 05:49:29;;;;;;;0.00;0.00;;;;;;;1.20;100.00;102715.09;10593876;27;20075;-76
2022/10/12 05:54:31;;;;;;;0.38;0.28;;;;;;;0.96;100.00;102719.69;10585191;27;20394;-76
2022/10/12 05:59:32;;;;;;;0.10;0.10;;;;;;;1.43;100.00;102719.81;10604825;27;20516;-76
2022/10/12 06:04:34;;;;;;;0.00;0.00;;;;;;;1.24;100.00;102715.53;10603227;28;20040;-76
2022/10/12 06:09:38;;;;;;;0.20;0.20;;;;;;;1.09;100.00;102717.56;10619154;27;20082;-76
2022/10/12 06:14:39;;;;;;;0.85;0.43;;;;;;;1.23;100.00;102717.94;10600001;28;20039;-75
2022/10/12 06:19:41;;;;;;;0.30;0.30;;;;;;;1.51;100.00;102712.88;10616328;28;20057;-76
2022/10/12 06:24:42;;;;;;;0.00;0.00;;;;;;;2.17;100.00;102711.22;10603392;27;20138;-77
2022/10/12 06:29:44;;;;;;;0.52;0.20;;;;;;;2.94;100.00;102718.72;10617413;28;20494;-77
2022/10/12 06:34:46;;;;;;;0.08;0.03;;;;;;;2.68;100.00;102708.03;10593575;28;20039;-75
2022/10/12 06:39:51;;;;;;;0.55;0.45;;;;;;;3.18;100.00;102697.00;10600881;28;20126;-77
2022/10/12 06:44:52;;;;;;;0.57;0.50;;;;;;;3.30;100.00;102694.59;10621252;28;20084;-77
2022/10/12 06:49:54;;;;;;;0.50;0.50;;;;;;;4.13;100.00;102678.44;10583452;28;20067;-77
2022/10/12 06:54:55;;;;;;;0.00;0.00;;;;;;;4.49;100.00;102663.41;10617125;28;20043;-76
2022/10/12 06:59:57;;;;;;;0.15;0.15;;;;;;;4.49;100.00;102653.19;10602170;28;20057;-77
2022/10/12 07:04:58;;;;;;;0.20;0.13;;;;;;;5.26;100.00;102645.47;10597844;28;20082;-77
2022/10/12 07:10:01;;;;;;;0.65;0.50;;;;;;;5.93;100.00;102643.56;10632646;28;20073;-77
2022/10/12 07:15:06;;;;;;;1.20;0.68;;;;;;;5.76;100.00;102646.59;10620782;28;20504;-77
2022/10/12 07:20:08;;;;;;;0.20;0.20;;;;;;;5.79;100.00;102657.03;10622215;27;20095;-77
2022/10/12 07:25:10;;;;;;;0.10;0.10;;;;;;;5.82;100.00;102665.81;10600789;27;20053;-76
2022/10/12 07:30:12;;;;;;;0.75;0.40;;;;;;;5.88;100.00;102673.06;10621860;27;20486;-77
2022/10/12 07:35:14;;;;;;;6.18;0.30;;;;;;;6.02;100.00;102672.41;10607990;27;20039;-76
2022/10/12 07:40:15;;;;;;;0.45;0.45;;;;;;;5.89;100.00;102669.72;10606329;27;20122;-77
2022/10/12 07:45:17;;;;;;;0.32;0.32;;;;;;;6.03;100.00;102671.66;10606355;27;20130;-77
2022/10/12 07:50:19;;;;;;;0.40;0.40;;;;;;;6.24;100.00;102663.75;10621448;27;20051;-77
2022/10/12 07:55:20;;;;;;;0.52;0.47;;;;;;;6.66;100.00;102656.44;10621997;27;20039;-77
2022/10/12 08:00:22;;;;;;;1.35;1.25;;;;;;;6.73;100.00;102644.97;10623129;27;20126;-77
2022/10/12 08:05:25;;;;;;;1.55;0.45;;;;;;;7.53;100.00;102617.03;10624184;27;20572;-77
2022/10/12 08:10:27;;;;;;;1.38;0.77;;;;;;;7.77;100.00;102586.09;10605174;27;20089;-78
2022/10/12 08:15:29;;;;;;;0.50;0.40;;;;;;;9.29;100.00;102551.59;10619068;27;20035;-77
2022/10/12 08:20:30;;;;;;;0.85;0.77;;;;;;;9.92;100.00;102511.38;10605324;27;20131;-77
2022/10/12 08:25:33;;;;;;;0.73;0.30;;;;;;;10.00;100.00;102473.19;10622280;27;20137;-77
2022/10/12 08:30:37;;;;;;;0.65;0.65;;;;;;;10.86;100.00;102445.84;10585088;27;20500;-77
2022/10/12 08:35:40;;;;;;;1.67;0.65;;;;;;;11.41;100.00;102424.38;10620645;27;20039;-78
2022/10/12 08:40:46;;;;;;;3.17;1.17;;;;;;;10.12;100.00;102432.63;10604094;27;20504;-77
2022/10/12 08:45:54;;;;;;;1.88;1.10;;;;;;;9.34;100.00;102452.47;10622087;27;20047;-77
2022/10/12 08:51:00;;;;;;;1.23;0.35;;;;;;;10.04;100.00;102454.50;10623705;27;20074;-77
2022/10/12 08:56:02;;;;;;;0.43;0.30;;;;;;;11.01;100.00;102430.22;10622671;27;20126;-77
2022/10/12 09:01:27;;;;;;;0.13;0.13;;;;;;;11.84;100.00;102420.28;10599558;27;20474;-77
2022/10/12 09:06:33;;;;;;;0.20;0.20;;;;;;;12.61;100.00;102412.44;10604453;27;20050;-78
2022/10/12 09:11:56;;;;;;;0.85;0.65;;;;;;;12.37;100.00;102415.75;10609221;27;20512;-77
2022/10/12 09:17:00;;;;;;;2.30;0.68;;;;;;;13.36;100.00;102410.22;10604722;27;20126;-77
2022/10/12 09:22:04;;;;;;;1.65;0.47;;;;;;;12.64;100.00;102414.28;10603437;27;20047;-77
2022/10/12 09:27:14;;;;;;;2.78;0.73;;;;;;;13.88;100.00;102395.78;10604330;27;20035;-77
2022/10/12 09:32:42;;;;;;;1.48;0.57;;;;;;;14.07;100.00;102392.13;10620659;27;20043;-76
2022/10/12 09:37:49;;;;;;;0.95;0.70;;;;;;;13.49;100.00;102404.72;10604537;27;20037;-77
2022/10/12 09:42:52;;;;;;;0.57;0.40;;;;;;;13.20;100.00;102400.97;10620912;27;20405;-77
2022/10/12 09:48:23;;;;;;;1.27;0.25;;;;;;;13.88;100.00;102396.69;10615642;27;20055;-77
2022/10/12 09:53:33;;;;;;;1.58;1.13;;;;;;;14.26;100.00;102380.69;10621325;27;20130;-77
2022/10/12 09:58:42;;;;;;;2.28;0.77;;;;;;;14.43;100.00;102383.84;10597029;27;20079;-78
2022/10/12 10:03:46;;;;;;;0.20;0.20;;;;;;;14.60;100.00;102377.53;10614053;27;20127;-77
2022/10/12 10:08:47;;;;;;;1.23;0.77;;;;;;;14.44;100.00;102375.25;10619738;28;20123;-78
2022/10/12 10:13:52;;;;;;;1.98;0.95;;;;;;;14.94;100.00;102366.50;10602364;28;20043;-77
2022/10/12 10:19:01;;;;;;;4.10;0.47;;;;;;;15.48;100.00;102358.59;10601405;28;20091;-77
2022/10/12 10:24:24;;;;;;;0.80;0.70;;;;;;;15.61;100.00;102357.25;10589644;28;20130;-77
2022/10/12 10:29:36;;;;;;;0.73;0.57;;;;;;;15.62;100.00;102352.91;10620034;28;20534;-78
2022/10/12 10:34:41;;;;;;;3.92;0.88;;;;;;;15.68;100.00;102353.09;10611570;28;20046;-78
2022/10/12 10:39:48;;;;;;;0.38;0.32;;;;;;;16.16;100.00;102351.81;10638965;28;20081;-78
2022/10/12 10:44:55;;;;;;;0.30;0.20;;;;;;;16.20;100.00;102347.56;10602406;28;20071;-77
2022/10/12 10:50:00;;;;;;;1.08;0.57;;;;;;;16.02;100.00;102339.31;10601555;28;20185;-77
2022/10/12 10:55:15;;;;;;;0.80;0.65;;;;;;;15.46;100.00;102321.31;10624093;27;20130;-77
2022/10/12 11:00:20;;;;;;;0.55;0.38;;;;;;;15.41;100.00;102319.44;10601446;27;20039;-78
2022/10/12 11:05:53;;;;;;;1.60;0.35;;;;;;;16.35;100.00;102314.13;10628486;27;20035;-77
2022/10/12 11:11:09;;;;;;;1.45;0.22;;;;;;;16.96;100.00;102306.94;10604076;27;20585;-77
2022/10/12 11:16:25;;;;;;;0.40;0.35;;;;;;;16.52;100.00;102306.78;10627570;27;20035;-78
2022/10/12 11:21:37;;;;;;;1.92;0.88;;;;;;;16.37;100.00;102302.06;10608479;27;20045;-77
2022/10/12 11:26:52;;;;;;;0.32;0.20;;;;;;;15.74;100.00;102293.53;10601368;27;20505;-77
2022/10/12 11:32:13;;;;;;;0.10;0.10;;;;;;;17.27;100.00;102278.03;10620871;27;20047;-77
2022/10/12 11:37:22;;;;;;;0.38;0.32;;;;;;;16.44;100.00;102279.69;10627300;27;20142;-77
2022/10/12 11:42:37;;;;;;;0.30;0.30;;;;;;;15.35;100.00;102273.41;10606521;27;20122;-77
2022/10/12 11:47:47;;;;;;;0.55;0.30;;;;;;;15.35;100.00;102281.19;10625104;27;20042;-77
2022/10/12 11:52:52;;;;;;;0.95;0.20;;;;;;;15.51;100.00;102279.88;10625850;27;20039;-77
2022/10/12 11:57:57;;;;;;;0.35;0.35;;;;;;;15.43;100.00;102284.00;10624758;27;20401;-77
2022/10/12 12:03:15;;;;;;;0.30;0.10;;;;;;;15.11;100.00;102266.66;10624906;27;20053;-77
2022/10/12 12:08:42;;;;;;;0.77;0.70;;;;;;;15.61;100.00;102268.03;10621931;27;20043;-77
2022/10/12 12:13:44;;;;;;;0.95;0.50;;;;;;;15.43;100.00;102263.22;10621577;27;20126;-77
2022/10/12 12:19:10;;;;;;;7.72;0.98;;;;;;;15.85;100.00;102273.91;10605210;27;20046;-77
2022/10/12 12:24:16;;;;;;;0.85;0.30;;;;;;;15.07;100.00;102257.03;10601551;27;20067;-77
2022/10/12 12:29:26;;;;;;;1.65;0.90;;;;;;;15.37;100.00;102244.03;10591719;27;20134;-77
2022/10/12 12:34:28;;;;;;;0.22;0.17;;;;;;;16.12;100.00;102214.78;10577222;27;20494;-78
2022/10/12 12:39:43;;;;;;;0.30;0.30;;;;;;;16.02;100.00;102193.75;10626658;27;20079;-77
2022/10/12 12:44:45;;;;;;;0.70;0.30;;;;;;;14.62;100.00;102196.00;10584135;27;20047;-78
2022/10/12 12:50:00;;;;;;;2.67;0.50;;;;;;;15.02;100.00;102188.53;10604438;27;20069;-77
2022/10/12 12:55:46;;;;;;;0.52;0.45;;;;;;;15.48;100.00;102181.13;10619729;27;20040;-78
2022/10/12 13:01:04;;;;;;;0.43;0.32;;;;;;;15.53;100.00;102188.19;10614652;27;20094;-78
2022/10/12 13:06:29;;;;;;;1.35;0.80;;;;;;;15.32;100.00;102188.50;10621759;27;20071;-78
2022/10/12 13:11:56;;;;;;;0.55;0.32;;;;;;;15.79;100.00;102176.69;10579920;27;20081;-78
2022/10/12 13:17:19;;;;;;;0.75;0.75;;;;;;;15.22;100.00;102176.13;10619983;27;20289;-78
2022/10/12 13:22:38;;;;;;;0.77;0.57;;;;;;;15.51;100.00;102184.69;10594504;27;20050;-77
2022/10/12 13:27:46;;;;;;;0.73;0.43;;;;;;;15.07;100.00;102174.00;10620521;27;20505;-77
2022/10/12 13:33:23;;;;;;;0.22;0.22;;;;;;;14.74;100.00;102167.00;10603243;27;20451;-77
2022/10/12 13:38:34;;;;;;;1.17;0.82;;;;;;;15.07;100.00;102172.25;10620320;27;20039;-77
2022/10/12 13:43:42;;;;;;;0.47;0.45;;;;;;;14.23;100.00;102174.13;10602506;27;20458;-77
2022/10/12 13:48:47;;;;;;;0.40;0.30;;;;;;;14.01;100.00;102161.31;10616867;27;20049;-77
2022/10/12 13:54:00;;;;;;;2.58;0.38;;;;;;;14.20;100.00;102158.44;10604197;27;20042;-77
2022/10/12 13:59:02;;;;;;;0.82;0.15;;;;;;;14.18;100.00;102151.47;10610688;27;20097;-78
2022/10/12 14:04:10;;;;;;;0.10;0.10;;;;;;;14.05;100.00;102155.38;10617281;27;20050;-77
2022/10/12 14:09:19;;;;;;;10.88;0.77;;;;;;;14.24;100.00;102154.25;10598510;28;20035;-77
2022/10/12 14:14:32;;;;;;;10.57;1.08;;;;;;;14.22;100.00;102151.63;10618909;27;20038;-77
2022/10/12 14:19:45;;;;;;;0.85;0.68;;;;;;;13.75;100.00;102145.78;10600903;28;20243;-78
2022/10/12 14:24:47;;;;;;;1.27;0.88;;;;;;;13.49;100.00;102151.00;10612754;28;20039;-77
2022/10/12 14:29:54;;;;;;;0.43;0.10;;;;;;;13.33;100.00;102150.44;10614684;27;20038;-78
2022/10/12 14:35:17;;;;;;;7.15;1.08;;;;;;;13.38;100.00;102144.53;10628069;27;20039;-77
2022/10/12 14:40:25;;;;;;;1.38;0.82;;;;;;;13.21;100.00;102139.66;10608673;27;20051;-77
2022/10/12 14:45:26;;;;;;;0.57;0.40;;;;;;;13.20;100.00;102143.09;10601098;27;20047;-77
2022/10/12 14:50:30;;;;;;;2.35;0.38;;;;;;;13.22;100.00;102136.22;10611033;27;20048;-77
2022/10/12 14:55:35;;;;;;;0.20;0.20;;;;;;;13.49;100.00;102146.69;10603464;27;20063;-77
2022/10/12 15:00:37;;;;;;;0.32;0.25;;;;;;;13.44;100.00;102156.00;10624677;27;20075;-77
2022/10/12 15:05:39;;;;;;;1.77;1.27;;;;;;;13.35;100.00;102137.53;10627407;27;20043;-77
2022/10/12 15:10:40;;;;;;;0.73;0.45;;;;;;;13.58;100.00;102135.78;10607581;27;20477;-77
2022/10/12 15:15:44;;;;;;;4.78;1.58;;;;;;;13.47;100.00;102116.41;10649384;27;20067;-77
2022/10/12 15:20:47;;;;;;;1.58;0.55;;;;;;;13.39;100.00;102123.03;10635411;27;20067;-77
2022/10/12 15:25:53;;;;;;;5.20;0.45;;;;;;;13.18;100.00;102109.38;10625742;27;20174;-77
2022/10/12 15:30:56;;;;;;;1.08;0.60;;;;;;;13.07;100.00;102099.50;10624896;27;20066;-77
2022/10/12 15:36:18;;;;;;;3.42;2.00;;;;;;;13.14;100.00;102101.47;10622529;27;20054;-76
2022/10/12 15:41:25;;;;;;;1.90;1.23;;;;;;;13.08;100.00;102091.78;10616305;27;20553;-77
2022/10/12 15:46:27;;;;;;;3.42;2.22;;;;;;;13.07;100.00;102090.03;10594813;27;20045;-77
2022/10/12 15:51:28;;;;;;;0.80;0.50;;;;;;;13.10;100.00;102090.13;10622678;27;20121;-77
2022/10/12 15:56:30;;;;;;;3.47;1.42;;;;;;;13.09;100.00;102082.31;10611689;27;20058;-77
2022/10/12 16:01:34;;;;;;;1.05;0.60;;;;;;;12.92;100.00;102085.19;10597068;27;20138;-77
2022/10/12 16:06:35;;;;;;;0.93;0.70;;;;;;;12.98;100.00;102088.00;10610580;27;20047;-77
2022/10/12 16:11:37;;;;;;;0.85;0.32;;;;;;;13.05;100.00;102094.25;10618004;27;20474;-77
2022/10/12 16:16:38;;;;;;;0.20;0.20;;;;;;;12.83;100.00;102085.75;10594669;27;20134;-78
2022/10/12 16:21:40;;;;;;;0.20;0.20;;;;;;;12.68;100.00;102091.25;10614418;27;20047;-77
2022/10/12 16:26:42;;;;;;;0.52;0.35;;;;;;;12.57;100.00;102102.03;10620692;27;20043;-77
2022/10/12 16:31:45;;;;;;;0.82;0.35;;;;;;;12.41;100.00;102110.91;10621615;27;20039;-77
2022/10/12 16:36:47;;;;;;;1.92;1.00;;;;;;;11.97;100.00;102098.91;10622003;27;20117;-77
2022/10/12 16:41:48;;;;;;;4.75;1.33;;;;;;;11.95;100.00;102103.09;10622495;27;20053;-78
2022/10/12 16:46:50;;;;;;;0.50;0.50;;;;;;;11.77;100.00;102115.28;10617333;27;20375;-77
2022/10/12 16:51:51;;;;;;;0.52;0.45;;;;;;;11.59;100.00;102122.34;10622335;27;20427;-78
2022/10/12 16:56:54;;;;;;;0.50;0.30;;;;;;;11.32;100.00;102131.53;10579222;27;20089;-77
2022/10/12 17:01:56;;;;;;;0.38;0.30;;;;;;;11.24;100.00;102144.94;10623242;27;20051;-78
2022/10/12 17:06:58;;;;;;;0.20;0.20;;;;;;;11.00;100.00;102147.34;10622699;27;20130;-77
2022/10/12 17:11:59;;;;;;;0.43;0.30;;;;;;;10.65;100.00;102156.97;10603518;27;20135;-77
2022/10/12 17:17:01;;;;;;;0.08;0.08;;;;;;;10.35;100.00;102162.44;10603890;27;20043;-77
2022/10/12 17:22:05;;;;;;;0.15;0.10;;;;;;;10.00;100.00;102154.78;10621509;27;20078;-76
2022/10/12 17:27:09;;;;;;;0.00;0.00;;;;;;;9.79;100.00;102170.06;10621432;27;20111;-78
2022/10/12 17:32:11;;;;;;;0.20;0.20;;;;;;;9.62;100.00;102171.78;10620561;27;20053;-78
2022/10/12 17:37:15;;;;;;;1.45;0.55;;;;;;;9.74;100.00;102181.81;10596265;27;20039;-77
2022/10/12 17:42:19;;;;;;;1.15;0.80;;;;;;;9.64;100.00;102185.63;10621845;27;20127;-77
2022/10/12 17:47:21;;;;;;;1.08;0.65;;;;;;;9.03;100.00;102198.78;10622524;27;20027;-77
2022/10/12 17:52:24;;;;;;;0.70;0.28;;;;;;;9.09;100.00;102193.97;10595928;27;20057;-77
2022/10/12 17:57:27;;;;;;;1.38;0.68;;;;;;;9.05;100.00;102203.19;10618362;27;20039;-77
2022/10/12 18:02:29;;;;;;;0.25;0.25;;;;;;;8.76;100.00;102193.91;10599624;27;20122;-77
2022/10/12 18:07:30;;;;;;;2.22;0.52;;;;;;;9.31;100.00;102198.53;10612950;27;20112;-77
2022/10/12 18:12:32;;;;;;;3.60;1.75;;;;;;;9.37;100.00;102195.38;10597266;28;20448;-77
2022/10/12 18:17:34;;;;;;;2.10;1.40;;;;;;;9.30;100.00;102178.78;10601059;28;20104;-77
2022/10/12 18:22:35;;;;;;;3.70;1.02;;;;;;;9.60;100.00;102176.00;10620220;28;20130;-77
2022/10/12 18:27:37;;;;;;;1.00;0.73;;;;;;;9.68;100.00;102166.94;10611619;28;20066;-77
2022/10/12 18:32:38;;;;;;;1.33;1.23;;;;;;;9.69;100.00;102167.84;10620132;28;20166;-77
2022/10/12 18:37:40;;;;;;;3.22;1.85;;;;;;;9.50;100.00;102155.75;10601425;28;20038;-77
2022/10/12 18:42:41;;;;;;;2.63;1.70;;;;;;;9.49;100.00;102157.41;10587351;28;20616;-77
2022/10/12 18:47:43;;;;;;;4.35;2.58;;;;;;;9.47;100.00;102151.34;10618668;27;20063;-77
2022/10/12 18:52:44;;;;;;;4.68;1.95;;;;;;;9.43;100.00;102157.13;10597566;28;20055;-77
2022/10/12 18:57:47;;;;;;;1.83;1.55;;;;;;;9.41;100.00;102155.28;10594013;28;20031;-77
2022/10/12 19:02:48;;;;;;;1.95;1.67;;;;;;;9.17;100.00;102156.69;10615991;28;20035;-77
2022/10/12 19:07:50;;;;;;;1.92;1.10;;;;;;;8.88;100.00;102161.19;10612362;28;20343;-77
2022/10/12 19:12:51;;;;;;;2.20;1.08;;;;;;;8.79;100.00;102168.41;10591330;28;20050;-77
2022/10/12 19:17:53;;;;;;;0.95;0.80;;;;;;;8.83;100.00;102165.19;10608368;27;20043;-77
2022/10/12 19:22:55;;;;;;;2.35;0.70;;;;;;;8.75;100.00;102163.88;10606591;27;20309;-77
2022/10/12 19:27:56;;;;;;;0.75;0.50;;;;;;;8.73;100.00;102157.78;10625800;27;20118;-77
2022/10/12 19:32:58;;;;;;;0.38;0.38;;;;;;;8.60;100.00;102161.38;10626333;27;20047;-77
2022/10/12 19:37:59;;;;;;;0.20;0.20;;;;;;;8.75;100.00;102163.00;10607504;27;20053;-77
2022/10/12 19:43:01;;;;;;;1.08;0.77;;;;;;;8.76;100.00;102147.66;10625660;27;20074;-77
2022/10/12 19:48:02;;;;;;;1.65;0.80;;;;;;;8.76;100.00;102142.53;10621630;27;20035;-78
2022/10/12 19:53:04;;;;;;;0.80;0.40;;;;;;;8.81;100.00;102141.09;10625866;27;20047;-78
2022/10/12 19:58:06;;;;;;;0.45;0.35;;;;;;;8.86;100.00;102144.78;10647652;27;20094;-78
2022/10/12 20:03:08;;;;;;;1.13;0.32;;;;;;;8.61;100.00;102149.41;10643623;27;20077;-77
2022/10/12 20:08:11;;;;;;;3.25;1.08;;;;;;;8.60;100.00;102156.25;10624335;27;20047;-77
2022/10/12 20:13:13;;;;;;;3.20;0.32;;;;;;;8.71;100.00;102161.97;10606786;27;20553;-77
2022/10/12 20:18:15;;;;;;;0.70;0.35;;;;;;;7.97;100.00;102170.69;10623878;27;20035;-77
2022/10/12 20:23:16;;;;;;;0.43;0.43;;;;;;;8.04;100.00;102245.53;10619983;27;20415;-77
2022/10/12 20:28:20;;;;;;;0.55;0.35;;;;;;;7.87;100.00;102246.28;10604907;27;20046;-77
2022/10/12 20:33:22;;;;;;;3.50;1.25;;;;;;;7.94;100.00;102239.00;10617501;27;20432;-77
2022/10/12 20:38:24;;;;;;;2.20;1.02;;;;;;;8.03;100.00;102242.91;10603509;27;20512;-77
2022/10/12 20:43:25;;;;;;;1.45;0.70;;;;;;;7.90;100.00;102237.06;10621293;27;20039;-77
2022/10/12 20:48:27;;;;;;;2.58;1.00;;;;;;;8.28;100.00;102239.19;10604838;27;20116;-77
2022/10/12 20:53:28;;;;;;;1.38;0.70;;;;;;;8.38;100.00;102226.03;10618964;27;20044;-77
2022/10/12 20:58:30;;;;;;;1.48;0.80;;;;;;;8.49;100.00;102214.75;10618588;27;20114;-77
2022/10/12 21:03:31;;;;;;;0.43;0.43;;;;;;;8.51;100.00;102210.56;10618473;27;20061;-77
2022/10/12 21:08:34;;;;;;;2.38;0.77;;;;;;;8.55;100.00;102214.19;10603369;27;20027;-77
2022/10/12 21:13:40;;;;;;;0.73;0.35;;;;;;;8.38;100.00;102213.22;10616049;27;20062;-77
2022/10/12 21:18:42;;;;;;;0.38;0.35;;;;;;;8.34;100.00;102213.84;10603225;27;20130;-77
2022/10/12 21:23:58;;;;;;;1.70;0.50;;;;;;;8.36;100.00;102217.41;10622460;27;20123;-77
2022/10/12 21:29:00;;;;;;;0.15;0.15;;;;;;;8.13;100.00;102221.22;10622261;27;20046;-77
2022/10/12 21:34:04;;;;;;;0.35;0.35;;;;;;;8.04;100.00;102219.00;10621805;27;20784;-77
2022/10/12 21:39:10;;;;;;;1.10;0.68;;;;;;;8.13;100.00;102229.81;10620251;27;20459;-77
2022/10/12 21:44:12;;;;;;;1.30;0.90;;;;;;;8.10;100.00;102230.53;10603038;27;20414;-78
2022/10/12 21:49:13;;;;;;;1.25;0.80;;;;;;;8.26;100.00;102216.88;10601960;27;20031;-77
2022/10/12 21:54:15;;;;;;;1.33;0.65;;;;;;;8.29;100.00;102215.28;10606853;27;20486;-77
2022/10/12 21:59:21;;;;;;;4.40;1.30;;;;;;;8.41;100.00;102201.41;10624773;27;20041;-77
2022/10/12 22:04:23;;;;;;;0.82;0.70;;;;;;;8.42;100.00;102204.88;10624164;27;20125;-76
2022/10/12 22:09:25;;;;;;;3.08;1.27;;;;;;;8.47;100.00;102195.78;10619245;27;20038;-77
2022/10/12 22:14:27;;;;;;;1.08;0.60;;;;;;;8.57;100.00;102195.50;10608809;28;20061;-77
2022/10/12 22:19:28;;;;;;;0.88;0.50;;;;;;;8.60;100.00;102186.19;10620444;28;20401;-77
2022/10/12 22:24:30;;;;;;;0.52;0.52;;;;;;;8.75;100.00;102181.88;10620184;28;20569;-77
2022/10/12 22:29:31;;;;;;;0.95;0.30;;;;;;;8.75;100.00;102171.59;10617297;28;20103;-77
2022/10/12 22:34:35;;;;;;;0.73;0.40;;;;;;;8.78;100.00;102171.75;10600926;28;20041;-77
2022/10/12 22:39:37;;;;;;;2.08;1.90;;;;;;;8.70;100.00;102173.03;10616240;28;20067;-77
2022/10/12 22:44:38;;;;;;;1.50;1.33;;;;;;;8.64;100.00;102167.56;10607115;28;20053;-77
2022/10/12 22:50:05;;;;;;;0.25;0.25;;;;;;;8.65;100.00;102164.19;10603445;27;20125;-77
2022/10/12 22:55:07;;;;;;;0.50;0.50;;;;;;;8.50;100.00;102165.13;10619920;27;20390;-77
2022/10/12 23:00:09;;;;;;;0.70;0.63;;;;;;;8.51;100.00;102160.88;10605746;27;20502;-77
2022/10/12 23:05:10;;;;;;;0.43;0.20;;;;;;;8.57;100.00;102151.84;10625453;27;20656;-77
2022/10/12 23:10:12;;;;;;;0.50;0.50;;;;;;;8.48;100.00;102156.47;10615299;27;20055;-77
2022/10/12 23:15:14;;;;;;;2.80;1.48;;;;;;;8.51;100.00;102151.50;10621039;27;20445;-77
2022/10/12 23:20:17;;;;;;;0.43;0.28;;;;;;;8.48;100.00;102151.31;10604164;27;20046;-77